sensor_id;sensor_type;location;lat;lon;timestamp;temperature;humidity
12477;DHT22;6303;51.504;6.300;2022-07-15T00:02:10;30.00;48.60
12477;DHT22;6303;51.504;6.300;2022-07-15T00:04:38;30.00;48.50
12477;DHT22;6303;51.504;6.300;2022-07-15T00:07:05;29.90;48.60
12477;DHT22;6303;51.504;6.300;2022-07-15T00:09:34;29.90;49.10
12477;DHT22;6303;51.504;6.300;2022-07-15T00:12:19;29.90;49.30
12477;DHT22;6303;51.504;6.300;2022-07-15T00:14:46;29.90;49.20
12477;DHT22;6303;51.504;6.300;2022-07-15T00:17:13;29.90;49.20
12477;DHT22;6303;51.504;6.300;2022-07-15T00:19:40;29.90;49.10
12477;DHT22;6303;51.504;6.300;2022-07-15T00:22:07;29.90;49.20
12477;DHT22;6303;51.504;6.300;2022-07-15T00:24:35;29.90;49.50
12477;DHT22;6303;51.504;6.300;2022-07-15T00:27:03;29.90;49.70
12477;DHT22;6303;51.504;6.300;2022-07-15T00:29:31;29.80;49.50
12477;DHT22;6303;51.504;6.300;2022-07-15T00:31:58;29.90;49.30
12477;DHT22;6303;51.504;6.300;2022-07-15T00:34:25;29.90;49.50
12477;DHT22;6303;51.504;6.300;2022-07-15T00:36:52;29.90;49.50
12477;DHT22;6303;51.504;6.300;2022-07-15T00:39:19;29.90;49.80
12477;DHT22;6303;51.504;6.300;2022-07-15T00:41:49;29.90;49.70
12477;DHT22;6303;51.504;6.300;2022-07-15T00:44:16;29.90;49.90
12477;DHT22;6303;51.504;6.300;2022-07-15T00:46:43;29.80;49.60
12477;DHT22;6303;51.504;6.300;2022-07-15T00:49:10;29.80;49.60
12477;DHT22;6303;51.504;6.300;2022-07-15T00:51:41;29.90;50.10
12477;DHT22;6303;51.504;6.300;2022-07-15T00:54:09;29.80;50.00
12477;DHT22;6303;51.504;6.300;2022-07-15T00:56:39;29.80;50.10
12477;DHT22;6303;51.504;6.300;2022-07-15T00:59:10;33.10;52.20
12477;DHT22;6303;51.504;6.300;2022-07-15T01:01:40;29.80;50.40
12477;DHT22;6303;51.504;6.300;2022-07-15T01:04:09;29.80;49.80
12477;DHT22;6303;51.504;6.300;2022-07-15T01:06:37;28.50;48.60
12477;DHT22;6303;51.504;6.300;2022-07-15T01:09:04;29.80;49.60
12477;DHT22;6303;51.504;6.300;2022-07-15T01:11:31;29.80;49.40
12477;DHT22;6303;51.504;6.300;2022-07-15T01:14:02;29.70;49.10
12477;DHT22;6303;51.504;6.300;2022-07-15T01:16:31;29.70;49.60
12477;DHT22;6303;51.504;6.300;2022-07-15T01:18:58;29.70;49.50
12477;DHT22;6303;51.504;6.300;2022-07-15T01:21:33;29.70;49.30
12477;DHT22;6303;51.504;6.300;2022-07-15T01:24:01;29.70;49.20
12477;DHT22;6303;51.504;6.300;2022-07-15T01:26:34;29.70;49.10
12477;DHT22;6303;51.504;6.300;2022-07-15T01:29:01;29.60;49.00
12477;DHT22;6303;51.504;6.300;2022-07-15T01:31:28;29.70;49.10
12477;DHT22;6303;51.504;6.300;2022-07-15T01:33:58;29.70;48.40
12477;DHT22;6303;51.504;6.300;2022-07-15T01:36:26;29.70;48.80
12477;DHT22;6303;51.504;6.300;2022-07-15T01:38:58;29.60;48.80
12477;DHT22;6303;51.504;6.300;2022-07-15T01:41:25;29.60;48.70
12477;DHT22;6303;51.504;6.300;2022-07-15T01:43:52;29.70;48.70
12477;DHT22;6303;51.504;6.300;2022-07-15T01:46:20;29.60;48.60
12477;DHT22;6303;51.504;6.300;2022-07-15T01:48:48;29.60;48.60
12477;DHT22;6303;51.504;6.300;2022-07-15T01:51:43;29.60;48.60
12477;DHT22;6303;51.504;6.300;2022-07-15T01:54:12;29.60;48.60
12477;DHT22;6303;51.504;6.300;2022-07-15T01:56:41;29.60;48.80
12477;DHT22;6303;51.504;6.300;2022-07-15T01:59:09;29.60;49.20
12477;DHT22;6303;51.504;6.300;2022-07-15T02:01:36;29.60;48.80
12477;DHT22;6303;51.504;6.300;2022-07-15T02:04:08;29.60;48.80
12477;DHT22;6303;51.504;6.300;2022-07-15T02:06:35;29.60;48.80
12477;DHT22;6303;51.504;6.300;2022-07-15T02:09:03;29.60;48.70
12477;DHT22;6303;51.504;6.300;2022-07-15T02:11:35;29.60;48.60
12477;DHT22;6303;51.504;6.300;2022-07-15T02:14:03;29.50;48.40
12477;DHT22;6303;51.504;6.300;2022-07-15T02:16:33;29.60;48.50
12477;DHT22;6303;51.504;6.300;2022-07-15T02:19:03;29.60;48.70
12477;DHT22;6303;51.504;6.300;2022-07-15T02:21:30;29.50;48.50
12477;DHT22;6303;51.504;6.300;2022-07-15T02:23:59;29.50;48.50
12477;DHT22;6303;51.504;6.300;2022-07-15T02:26:26;28.10;47.50
12477;DHT22;6303;51.504;6.300;2022-07-15T02:28:57;29.50;48.40
12477;DHT22;6303;51.504;6.300;2022-07-15T02:31:27;29.50;48.70
12477;DHT22;6303;51.504;6.300;2022-07-15T02:33:55;29.50;48.70
12477;DHT22;6303;51.504;6.300;2022-07-15T02:36:26;29.50;48.60
12477;DHT22;6303;51.504;6.300;2022-07-15T02:38:53;29.50;48.30
12477;DHT22;6303;51.504;6.300;2022-07-15T02:41:20;29.50;48.20
12477;DHT22;6303;51.504;6.300;2022-07-15T02:43:48;29.50;48.20
12477;DHT22;6303;51.504;6.300;2022-07-15T02:46:17;29.50;48.20
12477;DHT22;6303;51.504;6.300;2022-07-15T02:48:45;29.50;48.30
12477;DHT22;6303;51.504;6.300;2022-07-15T02:51:13;29.50;48.40
12477;DHT22;6303;51.504;6.300;2022-07-15T02:53:41;29.50;48.50
12477;DHT22;6303;51.504;6.300;2022-07-15T02:56:13;29.50;48.60
12477;DHT22;6303;51.504;6.300;2022-07-15T02:58:40;29.50;48.50
12477;DHT22;6303;51.504;6.300;2022-07-15T03:01:08;29.50;48.50
12477;DHT22;6303;51.504;6.300;2022-07-15T03:03:38;29.40;48.40
12477;DHT22;6303;51.504;6.300;2022-07-15T03:06:08;29.40;48.50
12477;DHT22;6303;51.504;6.300;2022-07-15T03:08:36;29.40;48.60
12477;DHT22;6303;51.504;6.300;2022-07-15T03:11:05;29.40;48.70
12477;DHT22;6303;51.504;6.300;2022-07-15T03:13:32;29.40;49.30
12477;DHT22;6303;51.504;6.300;2022-07-15T03:15:59;29.40;49.30
12477;DHT22;6303;51.504;6.300;2022-07-15T03:18:26;29.40;49.40
12477;DHT22;6303;51.504;6.300;2022-07-15T03:20:55;29.40;49.20
12477;DHT22;6303;51.504;6.300;2022-07-15T03:23:22;29.40;49.10
12477;DHT22;6303;51.504;6.300;2022-07-15T03:25:51;29.30;48.50
12477;DHT22;6303;51.504;6.300;2022-07-15T03:28:18;29.30;49.00
12477;DHT22;6303;51.504;6.300;2022-07-15T03:30:48;29.30;48.80
12477;DHT22;6303;51.504;6.300;2022-07-15T03:33:16;29.40;48.70
12477;DHT22;6303;51.504;6.300;2022-07-15T03:35:45;29.40;48.20
12477;DHT22;6303;51.504;6.300;2022-07-15T03:38:14;29.30;48.70
12477;DHT22;6303;51.504;6.300;2022-07-15T03:40:41;29.40;48.50
12477;DHT22;6303;51.504;6.300;2022-07-15T03:43:08;29.40;48.40
12477;DHT22;6303;51.504;6.300;2022-07-15T03:45:36;29.30;48.20
12477;DHT22;6303;51.504;6.300;2022-07-15T03:48:04;29.30;48.00
12477;DHT22;6303;51.504;6.300;2022-07-15T03:50:34;29.30;47.60
12477;DHT22;6303;51.504;6.300;2022-07-15T03:53:02;29.30;47.10
12477;DHT22;6303;51.504;6.300;2022-07-15T03:55:30;29.20;46.70
12477;DHT22;6303;51.504;6.300;2022-07-15T03:57:57;29.20;46.50
12477;DHT22;6303;51.504;6.300;2022-07-15T04:00:24;29.20;46.20
12477;DHT22;6303;51.504;6.300;2022-07-15T04:02:51;29.10;45.80
12477;DHT22;6303;51.504;6.300;2022-07-15T04:05:18;29.10;45.60
12477;DHT22;6303;51.504;6.300;2022-07-15T04:07:50;29.10;45.50
12477;DHT22;6303;51.504;6.300;2022-07-15T04:10:17;29.10;45.40
12477;DHT22;6303;51.504;6.300;2022-07-15T04:12:46;29.10;45.40
12477;DHT22;6303;51.504;6.300;2022-07-15T04:15:14;29.10;45.50
12477;DHT22;6303;51.504;6.300;2022-07-15T04:17:44;29.20;45.30
12477;DHT22;6303;51.504;6.300;2022-07-15T04:20:11;29.20;45.10
12477;DHT22;6303;51.504;6.300;2022-07-15T04:22:43;29.20;45.10
12477;DHT22;6303;51.504;6.300;2022-07-15T04:25:14;29.20;45.10
12477;DHT22;6303;51.504;6.300;2022-07-15T04:27:42;29.20;45.20
12477;DHT22;6303;51.504;6.300;2022-07-15T04:30:12;29.10;45.20
12477;DHT22;6303;51.504;6.300;2022-07-15T04:32:44;29.10;45.20
12477;DHT22;6303;51.504;6.300;2022-07-15T04:35:12;29.10;45.30
12477;DHT22;6303;51.504;6.300;2022-07-15T04:37:39;29.00;44.80
12477;DHT22;6303;51.504;6.300;2022-07-15T04:40:08;29.00;45.30
12477;DHT22;6303;51.504;6.300;2022-07-15T04:42:39;29.00;45.40
12477;DHT22;6303;51.504;6.300;2022-07-15T04:45:10;29.00;45.50
12477;DHT22;6303;51.504;6.300;2022-07-15T04:47:40;29.00;45.10
12477;DHT22;6303;51.504;6.300;2022-07-15T04:50:10;28.90;45.60
12477;DHT22;6303;51.504;6.300;2022-07-15T04:52:55;29.00;45.60
12477;DHT22;6303;51.504;6.300;2022-07-15T04:55:23;28.90;45.70
12477;DHT22;6303;51.504;6.300;2022-07-15T04:58:00;28.90;45.80
12477;DHT22;6303;51.504;6.300;2022-07-15T05:00:28;28.90;45.90
12477;DHT22;6303;51.504;6.300;2022-07-15T05:02:56;28.90;46.00
12477;DHT22;6303;51.504;6.300;2022-07-15T05:05:24;28.90;46.10
12477;DHT22;6303;51.504;6.300;2022-07-15T05:07:51;28.90;46.10
12477;DHT22;6303;51.504;6.300;2022-07-15T05:10:19;28.90;46.20
12477;DHT22;6303;51.504;6.300;2022-07-15T05:12:53;28.90;46.20
12477;DHT22;6303;51.504;6.300;2022-07-15T05:15:20;28.90;46.30
12477;DHT22;6303;51.504;6.300;2022-07-15T05:17:50;28.80;46.90
12477;DHT22;6303;51.504;6.300;2022-07-15T05:20:21;28.70;46.80
12477;DHT22;6303;51.504;6.300;2022-07-15T05:22:50;28.70;46.70
12477;DHT22;6303;51.504;6.300;2022-07-15T05:25:18;28.70;46.80
12477;DHT22;6303;51.504;6.300;2022-07-15T05:27:45;28.70;46.80
12477;DHT22;6303;51.504;6.300;2022-07-15T05:30:14;28.70;46.90
12477;DHT22;6303;51.504;6.300;2022-07-15T05:32:43;28.70;46.90
12477;DHT22;6303;51.504;6.300;2022-07-15T05:35:16;28.70;46.90
12477;DHT22;6303;51.504;6.300;2022-07-15T05:37:44;28.70;47.10
12477;DHT22;6303;51.504;6.300;2022-07-15T05:40:17;28.70;47.30
12477;DHT22;6303;51.504;6.300;2022-07-15T05:42:51;28.70;47.30
12477;DHT22;6303;51.504;6.300;2022-07-15T05:45:19;28.70;47.30
12477;DHT22;6303;51.504;6.300;2022-07-15T05:47:54;28.70;47.30
12477;DHT22;6303;51.504;6.300;2022-07-15T05:50:25;28.70;47.20
12477;DHT22;6303;51.504;6.300;2022-07-15T05:52:57;28.80;47.10
12477;DHT22;6303;51.504;6.300;2022-07-15T05:55:26;28.80;47.10
12477;DHT22;6303;51.504;6.300;2022-07-15T05:57:54;28.80;47.10
12477;DHT22;6303;51.504;6.300;2022-07-15T06:00:26;28.80;47.10
12477;DHT22;6303;51.504;6.300;2022-07-15T06:02:53;28.80;47.00
12477;DHT22;6303;51.504;6.300;2022-07-15T06:05:24;28.90;47.10
12477;DHT22;6303;51.504;6.300;2022-07-15T06:07:56;28.90;47.00
12477;DHT22;6303;51.504;6.300;2022-07-15T06:10:29;28.90;47.00
12477;DHT22;6303;51.504;6.300;2022-07-15T06:12:56;30.40;47.90
12477;DHT22;6303;51.504;6.300;2022-07-15T06:15:23;28.90;46.80
12477;DHT22;6303;51.504;6.300;2022-07-15T06:17:51;28.90;46.80
12477;DHT22;6303;51.504;6.300;2022-07-15T06:20:22;28.90;46.80
12477;DHT22;6303;51.504;6.300;2022-07-15T06:22:49;28.80;46.70
12477;DHT22;6303;51.504;6.300;2022-07-15T06:25:20;28.90;46.90
12477;DHT22;6303;51.504;6.300;2022-07-15T06:27:48;28.80;46.90
12477;DHT22;6303;51.504;6.300;2022-07-15T06:30:16;28.80;46.80
12477;DHT22;6303;51.504;6.300;2022-07-15T06:32:43;28.80;46.70
12477;DHT22;6303;51.504;6.300;2022-07-15T06:35:10;28.80;46.70
12477;DHT22;6303;51.504;6.300;2022-07-15T06:37:37;28.80;47.50
12477;DHT22;6303;51.504;6.300;2022-07-15T06:40:06;28.80;46.90
12477;DHT22;6303;51.504;6.300;2022-07-15T06:42:35;28.80;46.80
12477;DHT22;6303;51.504;6.300;2022-07-15T06:45:07;28.80;46.90
12477;DHT22;6303;51.504;6.300;2022-07-15T06:47:35;28.80;46.40
12477;DHT22;6303;51.504;6.300;2022-07-15T06:50:03;28.80;46.90
12477;DHT22;6303;51.504;6.300;2022-07-15T06:52:30;28.80;46.70
12477;DHT22;6303;51.504;6.300;2022-07-15T06:54:57;28.70;46.80
12477;DHT22;6303;51.504;6.300;2022-07-15T06:57:24;28.70;46.20
12477;DHT22;6303;51.504;6.300;2022-07-15T06:59:56;28.70;46.70
12477;DHT22;6303;51.504;6.300;2022-07-15T07:02:23;28.80;46.80
12477;DHT22;6303;51.504;6.300;2022-07-15T07:04:51;28.80;46.80
12477;DHT22;6303;51.504;6.300;2022-07-15T07:07:18;28.80;46.60
12477;DHT22;6303;51.504;6.300;2022-07-15T07:09:45;28.80;46.50
12477;DHT22;6303;51.504;6.300;2022-07-15T07:12:12;28.80;46.40
12477;DHT22;6303;51.504;6.300;2022-07-15T07:14:39;28.80;46.40
12477;DHT22;6303;51.504;6.300;2022-07-15T07:17:08;28.70;46.00
12477;DHT22;6303;51.504;6.300;2022-07-15T07:19:35;28.70;46.10
12477;DHT22;6303;51.504;6.300;2022-07-15T07:22:02;28.70;46.30
12477;DHT22;6303;51.504;6.300;2022-07-15T07:24:29;28.60;46.40
12477;DHT22;6303;51.504;6.300;2022-07-15T07:26:57;28.70;46.50
12477;DHT22;6303;51.504;6.300;2022-07-15T07:29:24;28.70;46.30
12477;DHT22;6303;51.504;6.300;2022-07-15T07:31:51;28.70;46.20
12477;DHT22;6303;51.504;6.300;2022-07-15T07:34:20;28.70;46.00
12477;DHT22;6303;51.504;6.300;2022-07-15T07:36:47;28.70;45.90
12477;DHT22;6303;51.504;6.300;2022-07-15T07:39:15;28.70;45.90
12477;DHT22;6303;51.504;6.300;2022-07-15T07:41:42;28.70;46.00
12477;DHT22;6303;51.504;6.300;2022-07-15T07:44:09;28.70;46.20
12477;DHT22;6303;51.504;6.300;2022-07-15T07:46:36;28.70;46.10
12477;DHT22;6303;51.504;6.300;2022-07-15T07:49:03;28.80;45.60
12477;DHT22;6303;51.504;6.300;2022-07-15T07:51:32;28.70;45.50
12477;DHT22;6303;51.504;6.300;2022-07-15T07:53:59;28.70;45.50
12477;DHT22;6303;51.504;6.300;2022-07-15T07:56:26;28.70;45.00
12477;DHT22;6303;51.504;6.300;2022-07-15T07:58:54;28.80;44.90
12477;DHT22;6303;51.504;6.300;2022-07-15T08:01:21;28.80;44.90
12477;DHT22;6303;51.504;6.300;2022-07-15T08:03:48;28.80;44.60
12477;DHT22;6303;51.504;6.300;2022-07-15T08:06:16;28.70;44.40
12477;DHT22;6303;51.504;6.300;2022-07-15T08:08:44;28.70;44.60
12477;DHT22;6303;51.504;6.300;2022-07-15T08:11:11;28.70;44.80
12477;DHT22;6303;51.504;6.300;2022-07-15T08:13:40;28.70;44.90
12477;DHT22;6303;51.504;6.300;2022-07-15T08:16:07;28.70;45.00
12477;DHT22;6303;51.504;6.300;2022-07-15T08:18:34;28.70;45.00
12477;DHT22;6303;51.504;6.300;2022-07-15T08:21:01;28.80;44.50
12477;DHT22;6303;51.504;6.300;2022-07-15T08:23:29;28.80;43.50
12477;DHT22;6303;51.504;6.300;2022-07-15T08:25:59;28.70;42.90
12477;DHT22;6303;51.504;6.300;2022-07-15T08:28:27;28.70;42.80
12477;DHT22;6303;51.504;6.300;2022-07-15T08:30:54;27.80;42.20
12477;DHT22;6303;51.504;6.300;2022-07-15T08:33:21;28.60;42.90
12477;DHT22;6303;51.504;6.300;2022-07-15T08:35:48;28.60;43.00
12477;DHT22;6303;51.504;6.300;2022-07-15T08:38:15;28.60;43.30
12477;DHT22;6303;51.504;6.300;2022-07-15T08:40:42;28.60;43.60
12477;DHT22;6303;51.504;6.300;2022-07-15T08:43:11;28.60;43.60
12477;DHT22;6303;51.504;6.300;2022-07-15T08:45:40;28.60;43.60
12477;DHT22;6303;51.504;6.300;2022-07-15T08:48:08;28.60;43.00
12477;DHT22;6303;51.504;6.300;2022-07-15T08:50:36;28.60;43.40
12477;DHT22;6303;51.504;6.300;2022-07-15T08:53:03;28.60;43.10
12477;DHT22;6303;51.504;6.300;2022-07-15T08:55:31;28.60;42.90
12477;DHT22;6303;51.504;6.300;2022-07-15T08:57:58;28.50;42.90
12477;DHT22;6303;51.504;6.300;2022-07-15T09:00:27;28.50;43.40
12477;DHT22;6303;51.504;6.300;2022-07-15T09:02:58;28.60;43.40
12477;DHT22;6303;51.504;6.300;2022-07-15T09:05:28;28.60;43.40
12477;DHT22;6303;51.504;6.300;2022-07-15T09:07:59;28.50;42.50
12477;DHT22;6303;51.504;6.300;2022-07-15T09:10:45;28.50;43.00
12477;DHT22;6303;51.504;6.300;2022-07-15T09:13:22;28.50;43.10
12477;DHT22;6303;51.504;6.300;2022-07-15T09:15:51;28.50;43.20
12477;DHT22;6303;51.504;6.300;2022-07-15T09:18:20;28.50;43.30
12477;DHT22;6303;51.504;6.300;2022-07-15T09:20:48;28.50;43.30
12477;DHT22;6303;51.504;6.300;2022-07-15T09:23:17;28.50;43.30
12477;DHT22;6303;51.504;6.300;2022-07-15T09:25:48;28.40;43.30
12477;DHT22;6303;51.504;6.300;2022-07-15T09:28:16;28.50;43.40
12477;DHT22;6303;51.504;6.300;2022-07-15T09:30:44;28.50;43.40
12477;DHT22;6303;51.504;6.300;2022-07-15T09:33:32;28.60;43.60
12477;DHT22;6303;51.504;6.300;2022-07-15T09:36:14;28.60;43.50
12477;DHT22;6303;51.504;6.300;2022-07-15T09:38:44;28.60;43.30
12477;DHT22;6303;51.504;6.300;2022-07-15T09:41:19;28.60;42.80
12477;DHT22;6303;51.504;6.300;2022-07-15T09:43:50;28.60;42.40
12477;DHT22;6303;51.504;6.300;2022-07-15T09:46:19;28.60;42.70
12477;DHT22;6303;51.504;6.300;2022-07-15T09:48:49;28.50;42.40
12477;DHT22;6303;51.504;6.300;2022-07-15T09:51:17;28.50;42.50
12477;DHT22;6303;51.504;6.300;2022-07-15T09:53:44;28.50;42.70
12477;DHT22;6303;51.504;6.300;2022-07-15T09:56:13;28.50;42.80
12477;DHT22;6303;51.504;6.300;2022-07-15T09:58:42;28.50;43.00
12477;DHT22;6303;51.504;6.300;2022-07-15T10:01:11;28.60;43.20
12477;DHT22;6303;51.504;6.300;2022-07-15T10:03:38;28.60;43.00
12477;DHT22;6303;51.504;6.300;2022-07-15T10:06:07;28.60;43.10
12477;DHT22;6303;51.504;6.300;2022-07-15T10:08:36;28.60;43.20
12477;DHT22;6303;51.504;6.300;2022-07-15T10:11:08;28.60;43.20
12477;DHT22;6303;51.504;6.300;2022-07-15T10:14:05;28.50;43.10
12477;DHT22;6303;51.504;6.300;2022-07-15T10:22:47;28.50;42.50
12477;DHT22;6303;51.504;6.300;2022-07-15T10:25:23;28.50;42.70
12477;DHT22;6303;51.504;6.300;2022-07-15T10:28:00;28.50;42.50
12477;DHT22;6303;51.504;6.300;2022-07-15T10:30:30;28.60;42.70
12477;DHT22;6303;51.504;6.300;2022-07-15T10:33:11;28.50;43.00
12477;DHT22;6303;51.504;6.300;2022-07-15T10:35:43;28.60;43.30
12477;DHT22;6303;51.504;6.300;2022-07-15T10:38:30;28.60;43.30
12477;DHT22;6303;51.504;6.300;2022-07-15T10:40:58;28.60;43.30
12477;DHT22;6303;51.504;6.300;2022-07-15T10:43:44;28.60;43.50
12477;DHT22;6303;51.504;6.300;2022-07-15T10:46:26;28.60;43.60
12477;DHT22;6303;51.504;6.300;2022-07-15T10:49:27;28.70;43.50
12477;DHT22;6303;51.504;6.300;2022-07-15T10:51:57;28.60;43.50
12477;DHT22;6303;51.504;6.300;2022-07-15T10:54:43;28.70;43.50
12477;DHT22;6303;51.504;6.300;2022-07-15T10:57:11;28.70;43.20
12477;DHT22;6303;51.504;6.300;2022-07-15T10:59:47;28.70;42.90
12477;DHT22;6303;51.504;6.300;2022-07-15T11:02:17;28.70;43.20
12477;DHT22;6303;51.504;6.300;2022-07-15T11:04:46;28.70;43.40
12477;DHT22;6303;51.504;6.300;2022-07-15T11:07:29;28.80;43.00
12477;DHT22;6303;51.504;6.300;2022-07-15T11:10:21;28.70;42.90
12477;DHT22;6303;51.504;6.300;2022-07-15T11:12:57;28.70;42.60
12477;DHT22;6303;51.504;6.300;2022-07-15T11:15:26;28.80;43.00
12477;DHT22;6303;51.504;6.300;2022-07-15T11:17:55;28.80;42.80
12477;DHT22;6303;51.504;6.300;2022-07-15T11:20:26;28.80;42.90
12477;DHT22;6303;51.504;6.300;2022-07-15T11:22:55;28.80;42.70
12477;DHT22;6303;51.504;6.300;2022-07-15T11:25:25;28.80;42.70
12477;DHT22;6303;51.504;6.300;2022-07-15T11:28:02;28.80;41.60
12477;DHT22;6303;51.504;6.300;2022-07-15T11:30:32;28.80;42.10
12477;DHT22;6303;51.504;6.300;2022-07-15T11:33:02;28.80;41.90
12477;DHT22;6303;51.504;6.300;2022-07-15T11:35:32;28.70;41.50
12477;DHT22;6303;51.504;6.300;2022-07-15T11:38:08;28.70;41.50
12477;DHT22;6303;51.504;6.300;2022-07-15T11:40:42;28.70;42.00
12477;DHT22;6303;51.504;6.300;2022-07-15T11:43:28;28.70;41.80
12477;DHT22;6303;51.504;6.300;2022-07-15T11:46:12;25.70;39.90
12477;DHT22;6303;51.504;6.300;2022-07-15T11:48:39;28.70;41.60
12477;DHT22;6303;51.504;6.300;2022-07-15T11:51:09;28.70;41.60
12477;DHT22;6303;51.504;6.300;2022-07-15T11:53:37;28.70;41.70
12477;DHT22;6303;51.504;6.300;2022-07-15T11:56:09;28.70;42.00
12477;DHT22;6303;51.504;6.300;2022-07-15T11:58:38;28.70;42.10
12477;DHT22;6303;51.504;6.300;2022-07-15T12:01:07;28.70;42.50
12477;DHT22;6303;51.504;6.300;2022-07-15T12:03:37;28.70;42.60
12477;DHT22;6303;51.504;6.300;2022-07-15T12:06:13;28.70;42.30
12477;DHT22;6303;51.504;6.300;2022-07-15T12:08:46;28.80;42.00
12477;DHT22;6303;51.504;6.300;2022-07-15T12:11:21;28.80;41.80
12477;DHT22;6303;51.504;6.300;2022-07-15T12:13:54;28.80;41.70
12477;DHT22;6303;51.504;6.300;2022-07-15T12:16:27;28.80;41.90
12477;DHT22;6303;51.504;6.300;2022-07-15T12:18:57;28.80;42.00
12477;DHT22;6303;51.504;6.300;2022-07-15T12:21:24;28.20;41.30
12477;DHT22;6303;51.504;6.300;2022-07-15T12:24:07;28.80;41.70
12477;DHT22;6303;51.504;6.300;2022-07-15T12:26:36;28.80;41.70
12477;DHT22;6303;51.504;6.300;2022-07-15T12:29:06;28.80;41.50
12477;DHT22;6303;51.504;6.300;2022-07-15T12:31:36;28.80;41.30
12477;DHT22;6303;51.504;6.300;2022-07-15T12:34:04;28.80;41.40
12477;DHT22;6303;51.504;6.300;2022-07-15T12:36:33;28.80;41.40
12477;DHT22;6303;51.504;6.300;2022-07-15T12:39:14;28.80;41.50
12477;DHT22;6303;51.504;6.300;2022-07-15T12:41:57;28.80;41.30
12477;DHT22;6303;51.504;6.300;2022-07-15T12:44:26;28.80;41.30
12477;DHT22;6303;51.504;6.300;2022-07-15T12:46:55;28.80;41.90
12477;DHT22;6303;51.504;6.300;2022-07-15T12:49:47;28.80;41.80
12477;DHT22;6303;51.504;6.300;2022-07-15T12:52:25;28.80;42.00
12477;DHT22;6303;51.504;6.300;2022-07-15T12:54:55;28.80;41.90
12477;DHT22;6303;51.504;6.300;2022-07-15T12:57:27;28.80;41.80
12477;DHT22;6303;51.504;6.300;2022-07-15T12:59:56;28.80;41.20
12477;DHT22;6303;51.504;6.300;2022-07-15T13:02:24;28.80;41.00
12477;DHT22;6303;51.504;6.300;2022-07-15T13:04:52;28.80;40.90
12477;DHT22;6303;51.504;6.300;2022-07-15T13:07:20;28.80;41.00
12477;DHT22;6303;51.504;6.300;2022-07-15T13:09:47;28.80;40.70
12477;DHT22;6303;51.504;6.300;2022-07-15T13:12:14;28.80;41.10
12477;DHT22;6303;51.504;6.300;2022-07-15T13:14:43;28.80;41.20
12477;DHT22;6303;51.504;6.300;2022-07-15T13:17:11;28.80;41.00
12477;DHT22;6303;51.504;6.300;2022-07-15T13:19:38;28.80;41.30
12477;DHT22;6303;51.504;6.300;2022-07-15T13:22:05;28.70;40.90
12477;DHT22;6303;51.504;6.300;2022-07-15T13:24:33;28.80;40.50
12477;DHT22;6303;51.504;6.300;2022-07-15T13:27:00;28.80;40.50
12477;DHT22;6303;51.504;6.300;2022-07-15T13:29:27;28.70;40.70
12477;DHT22;6303;51.504;6.300;2022-07-15T13:31:56;28.70;40.70
12477;DHT22;6303;51.504;6.300;2022-07-15T13:34:23;28.70;40.80
12477;DHT22;6303;51.504;6.300;2022-07-15T13:36:50;28.80;40.70
12477;DHT22;6303;51.504;6.300;2022-07-15T13:39:17;28.80;40.70
12477;DHT22;6303;51.504;6.300;2022-07-15T13:41:44;28.70;40.70
12477;DHT22;6303;51.504;6.300;2022-07-15T13:44:12;28.70;40.50
12477;DHT22;6303;51.504;6.300;2022-07-15T13:46:39;28.70;40.50
12477;DHT22;6303;51.504;6.300;2022-07-15T13:49:09;28.70;40.60
12477;DHT22;6303;51.504;6.300;2022-07-15T13:51:36;28.70;40.60
12477;DHT22;6303;51.504;6.300;2022-07-15T13:54:07;28.70;40.60
12477;DHT22;6303;51.504;6.300;2022-07-15T13:56:35;28.70;40.60
12477;DHT22;6303;51.504;6.300;2022-07-15T13:59:02;28.70;40.80
12477;DHT22;6303;51.504;6.300;2022-07-15T14:01:30;28.70;40.80
12477;DHT22;6303;51.504;6.300;2022-07-15T14:03:58;28.70;40.80
12477;DHT22;6303;51.504;6.300;2022-07-15T14:06:26;28.70;40.80
12477;DHT22;6303;51.504;6.300;2022-07-15T14:08:53;28.70;40.70
12477;DHT22;6303;51.504;6.300;2022-07-15T14:11:20;28.70;40.60
12477;DHT22;6303;51.504;6.300;2022-07-15T14:13:47;28.70;40.50
12477;DHT22;6303;51.504;6.300;2022-07-15T14:16:14;28.70;40.60
12477;DHT22;6303;51.504;6.300;2022-07-15T14:18:41;28.70;40.80
12477;DHT22;6303;51.504;6.300;2022-07-15T14:21:13;28.70;40.80
12477;DHT22;6303;51.504;6.300;2022-07-15T14:23:43;28.70;40.60
12477;DHT22;6303;51.504;6.300;2022-07-15T14:26:11;28.70;40.80
12477;DHT22;6303;51.504;6.300;2022-07-15T14:28:39;28.70;40.80
12477;DHT22;6303;51.504;6.300;2022-07-15T14:31:07;28.70;40.90
12477;DHT22;6303;51.504;6.300;2022-07-15T14:33:34;28.70;40.80
12477;DHT22;6303;51.504;6.300;2022-07-15T14:36:01;28.70;40.70
12477;DHT22;6303;51.504;6.300;2022-07-15T14:38:29;28.70;40.60
12477;DHT22;6303;51.504;6.300;2022-07-15T14:40:58;28.70;40.50
12477;DHT22;6303;51.504;6.300;2022-07-15T14:43:25;28.70;40.30
12477;DHT22;6303;51.504;6.300;2022-07-15T14:45:52;28.70;40.10
12477;DHT22;6303;51.504;6.300;2022-07-15T14:48:19;28.70;40.10
12477;DHT22;6303;51.504;6.300;2022-07-15T14:50:46;28.70;40.20
12477;DHT22;6303;51.504;6.300;2022-07-15T14:53:13;28.70;40.30
12477;DHT22;6303;51.504;6.300;2022-07-15T14:55:40;28.70;40.40
12477;DHT22;6303;51.504;6.300;2022-07-15T14:58:09;28.70;40.40
12477;DHT22;6303;51.504;6.300;2022-07-15T15:00:38;28.70;40.10
12477;DHT22;6303;51.504;6.300;2022-07-15T15:03:05;28.70;40.10
12477;DHT22;6303;51.504;6.300;2022-07-15T15:05:32;28.70;40.30
12477;DHT22;6303;51.504;6.300;2022-07-15T15:07:59;28.70;40.30
12477;DHT22;6303;51.504;6.300;2022-07-15T15:10:27;28.70;40.50
12477;DHT22;6303;51.504;6.300;2022-07-15T15:12:54;28.60;40.80
12477;DHT22;6303;51.504;6.300;2022-07-15T15:15:22;28.60;40.90
12477;DHT22;6303;51.504;6.300;2022-07-15T15:17:50;28.60;40.80
12477;DHT22;6303;51.504;6.300;2022-07-15T15:20:17;28.60;41.30
12477;DHT22;6303;51.504;6.300;2022-07-15T15:22:45;28.70;41.40
12477;DHT22;6303;51.504;6.300;2022-07-15T15:25:12;28.40;41.00
12477;DHT22;6303;51.504;6.300;2022-07-15T15:27:39;28.60;40.90
12477;DHT22;6303;51.504;6.300;2022-07-15T15:30:08;28.60;41.20
12477;DHT22;6303;51.504;6.300;2022-07-15T15:32:37;28.70;41.20
12477;DHT22;6303;51.504;6.300;2022-07-15T15:35:07;28.70;42.00
12477;DHT22;6303;51.504;6.300;2022-07-15T15:37:34;28.70;42.20
12477;DHT22;6303;51.504;6.300;2022-07-15T15:40:02;28.70;42.10
12477;DHT22;6303;51.504;6.300;2022-07-15T15:42:29;28.70;42.20
12477;DHT22;6303;51.504;6.300;2022-07-15T15:44:56;28.70;41.90
12477;DHT22;6303;51.504;6.300;2022-07-15T15:47:23;28.70;41.50
12477;DHT22;6303;51.504;6.300;2022-07-15T15:49:51;28.70;41.50
12477;DHT22;6303;51.504;6.300;2022-07-15T15:52:18;28.60;41.60
12477;DHT22;6303;51.504;6.300;2022-07-15T15:54:46;28.70;41.40
12477;DHT22;6303;51.504;6.300;2022-07-15T15:57:13;28.70;41.40
12477;DHT22;6303;51.504;6.300;2022-07-15T15:59:40;28.70;41.40
12477;DHT22;6303;51.504;6.300;2022-07-15T16:02:07;28.70;41.50
12477;DHT22;6303;51.504;6.300;2022-07-15T16:04:34;28.70;41.20
12477;DHT22;6303;51.504;6.300;2022-07-15T16:07:04;28.70;41.20